Time;durP1;ratioP1;P1;durP2;ratioP2;P2;SDS_P1;SDS_P2;PMS_P1;PMS_P2;Temp;Humidity;BMP_temperature;BMP_pressure;BME280_temperature;BME280_humidity;BME280_pressure;Samples;Min_cycle;Max_cycle;Signal;HPM_P1;HPM_P2
2022/10/25 00:00:31;;;;;;;13.07;4.85;;;14.00;81.00;;;;;;5000420;28;20192;-71
2022/10/25 00:02:56;;;;;;;7.47;4.38;;;14.00;80.80;;;;;;5001276;28;20654;-71
2022/10/25 00:05:22;;;;;;;10.85;4.45;;;14.00;80.60;;;;;;5003198;28;20222;-70
2022/10/25 00:07:47;;;;;;;9.93;4.72;;;13.90;80.10;;;;;;5002762;28;20200;-71
2022/10/25 00:10:13;;;;;;;10.95;4.65;;;13.90;79.70;;;;;;5001320;28;20315;-71
2022/10/25 00:12:43;;;;;;;5.95;3.50;;;13.90;79.30;;;;;;5002174;28;20189;-71
2022/10/25 00:15:12;;;;;;;7.30;3.38;;;13.90;79.10;;;;;;4999731;28;20180;-70
2022/10/25 00:17:38;;;;;;;5.82;3.92;;;13.90;78.50;;;;;;4999073;28;20239;-72
2022/10/25 00:20:04;;;;;;;9.27;3.97;;;13.80;79.10;;;;;;5001402;28;20700;-72
2022/10/25 00:22:29;;;;;;;7.90;3.63;;;13.80;79.00;;;;;;5001539;28;20288;-72
2022/10/25 00:24:55;;;;;;;4.50;3.40;;;13.80;79.20;;;;;;5001841;28;20276;-72
2022/10/25 00:27:21;;;;;;;7.88;3.60;;;13.80;80.00;;;;;;5002147;28;20188;-72
2022/10/25 00:29:46;;;;;;;6.70;3.35;;;13.80;79.20;;;;;;5006816;28;20231;-72
2022/10/25 00:32:12;;;;;;;6.03;3.83;;;13.80;80.10;;;;;;5013664;28;20668;-71
2022/10/25 00:34:41;;;;;;;3.35;3.05;;;13.80;79.00;;;;;;5009257;28;20184;-71
2022/10/25 00:37:06;;;;;;;6.18;3.38;;;13.70;79.40;;;;;;5003642;28;20268;-72
2022/10/25 00:39:32;;;;;;;5.72;3.90;;;13.70;79.60;;;;;;5008510;28;20292;-72
2022/10/25 00:41:58;;;;;;;10.35;4.10;;;13.70;80.90;;;;;;5007942;28;20184;-72
2022/10/25 00:44:38;;;;;;;7.00;3.83;;;13.70;80.40;;;;;;5010039;28;20737;-71
2022/10/25 00:47:28;;;;;;;7.28;4.07;;;13.60;80.30;;;;;;5007114;28;20196;-71
2022/10/25 00:50:14;;;;;;;10.60;4.13;;;13.60;80.70;;;;;;5009427;28;20874;-72
2022/10/25 00:52:42;;;;;;;7.75;4.45;;;13.60;80.70;;;;;;5010831;28;20185;-71
2022/10/25 00:55:08;;;;;;;11.77;5.40;;;13.50;81.50;;;;;;5009230;28;20268;-72
2022/10/25 00:57:44;;;;;;;12.82;4.38;;;13.50;80.50;;;;;;5012011;28;20601;-71
2022/10/25 01:00:10;;;;;;;13.25;4.82;;;13.40;80.00;;;;;;5010944;28;20723;-71
2022/10/25 01:02:35;;;;;;;7.95;4.35;;;13.40;79.80;;;;;;5010685;28;20326;-71
2022/10/25 01:05:02;;;;;;;7.47;4.22;;;13.30;80.30;;;;;;5014488;28;20701;-71
2022/10/25 01:07:28;;;;;;;6.88;4.40;;;13.30;80.10;;;;;;5013554;28;20263;-72
2022/10/25 01:09:54;;;;;;;10.80;5.35;;;13.30;81.10;;;;;;5012659;28;20308;-72
2022/10/25 01:12:20;;;;;;;12.32;4.35;;;13.30;79.80;;;;;;5013643;28;20711;-71
2022/10/25 01:14:48;;;;;;;9.15;4.90;;;13.30;82.50;;;;;;5014270;28;20909;-71
2022/10/25 01:17:24;;;;;;;9.98;5.03;;;13.30;81.50;;;;;;5008076;28;20192;-72
2022/10/25 01:20:08;;;;;;;17.75;5.35;;;13.30;81.70;;;;;;5018028;28;20189;-71
2022/10/25 01:22:40;;;;;;;10.30;5.07;;;13.20;80.70;;;;;;5016120;28;20184;-72
2022/10/25 01:25:24;;;;;;;7.70;5.28;;;13.20;81.10;;;;;;5015698;28;20177;-71
2022/10/25 01:27:52;;;;;;;8.18;4.15;;;13.20;80.60;;;;;;5016530;28;20766;-72
2022/10/25 01:30:41;;;;;;;9.30;4.28;;;13.20;81.70;;;;;;5018898;28;20227;-72
2022/10/25 01:33:18;;;;;;;5.95;4.40;;;13.20;81.30;;;;;;5015179;28;20233;-72
2022/10/25 01:36:07;;;;;;;9.02;4.55;;;13.20;81.80;;;;;;5010762;28;20191;-71
2022/10/25 01:38:44;;;;;;;8.82;4.63;;;13.10;80.70;;;;;;5013909;28;20189;-70
2022/10/25 01:41:31;;;;;;;8.88;5.32;;;13.10;81.20;;;;;;5017105;28;20259;-70
2022/10/25 01:44:17;;;;;;;9.98;4.30;;;13.10;80.10;;;;;;5013756;28;20259;-71
2022/10/25 01:46:53;;;;;;;11.57;4.45;;;13.10;81.00;;;;;;5011682;28;20314;-70
2022/10/25 01:49:27;;;;;;;5.88;4.35;;;13.10;82.00;;;;;;5010833;28;20579;-70
2022/10/25 01:51:53;;;;;;;9.07;3.92;;;13.10;82.50;;;;;;5016794;28;20267;-71
2022/10/25 01:54:24;;;;;;;11.43;4.28;;;13.10;83.30;;;;;;5015381;28;20326;-70
2022/10/25 01:57:12;;;;;;;9.45;3.35;;;13.10;83.00;;;;;;5014905;28;20631;-72
2022/10/25 02:00:10;;;;;;;4.10;3.63;;;13.10;82.60;;;;;;5014349;28;20176;-71
2022/10/25 02:03:09;;;;;;;6.50;3.90;;;13.00;83.00;;;;;;5013004;28;20188;-71
2022/10/25 02:06:01;;;;;;;7.93;3.80;;;13.00;82.90;;;;;;5009425;28;20181;-71
2022/10/25 02:08:46;;;;;;;5.85;4.03;;;13.00;82.10;;;;;;5014915;28;20326;-71
2022/10/25 02:11:27;;;;;;;12.38;3.95;;;12.90;81.90;;;;;;5010534;28;20248;-71
2022/10/25 02:14:05;;;;;;;8.20;3.83;;;12.80;81.30;;;;;;5009847;28;20192;-71
2022/10/25 02:16:49;;;;;;;4.85;3.83;;;12.80;82.80;;;;;;5011312;28;20181;-71
2022/10/25 02:19:20;;;;;;;4.75;4.03;;;12.80;82.60;;;;;;5010903;28;20217;-71
2022/10/25 02:21:47;;;;;;;6.03;4.07;;;12.70;81.80;;;;;;5017098;28;20177;-71
2022/10/25 02:24:18;;;;;;;9.48;4.03;;;12.70;82.10;;;;;;5042420;28;20670;-71
2022/10/25 02:26:48;;;;;;;7.53;3.53;;;12.70;82.00;;;;;;5008368;28;20580;-72
2022/10/25 02:29:15;;;;;;;5.57;4.00;;;12.60;82.00;;;;;;5011901;28;20193;-71
2022/10/25 02:31:42;;;;;;;8.48;3.15;;;12.60;83.90;;;;;;5014573;28;20315;-71
2022/10/25 02:34:07;;;;;;;6.03;3.90;;;12.60;84.60;;;;;;5015912;28;20259;-71
2022/10/25 02:36:33;;;;;;;8.13;3.28;;;12.60;84.70;;;;;;5008682;28;20288;-71
2022/10/25 02:39:00;;;;;;;12.35;4.00;;;12.60;85.00;;;;;;5013732;28;20191;-70
2022/10/25 02:41:25;;;;;;;7.97;3.40;;;12.60;85.00;;;;;;5016331;28;20184;-71
2022/10/25 02:43:51;;;;;;;11.43;3.88;;;12.50;84.80;;;;;;5013918;28;20962;-71
2022/10/25 02:46:20;;;;;;;4.55;3.47;;;12.50;84.10;;;;;;5010894;28;20193;-71
2022/10/25 02:48:46;;;;;;;5.45;3.47;;;12.50;83.20;;;;;;5010386;28;20192;-71
2022/10/25 02:51:12;;;;;;;5.30;2.92;;;12.50;83.40;;;;;;5010474;28;20879;-71
2022/10/25 02:53:38;;;;;;;6.07;3.50;;;12.40;82.60;;;;;;5015196;28;20263;-71
2022/10/25 02:56:07;;;;;;;3.67;3.17;;;12.40;82.50;;;;;;5013572;28;20713;-71
2022/10/25 02:58:36;;;;;;;7.60;3.88;;;12.40;82.20;;;;;;5015316;28;20187;-71
2022/10/25 03:01:02;;;;;;;6.03;3.95;;;12.40;82.40;;;;;;5016339;28;20645;-71
2022/10/25 03:03:29;;;;;;;6.47;3.42;;;12.40;82.60;;;;;;5012484;28;20208;-70
2022/10/25 03:05:55;;;;;;;9.50;4.43;;;12.40;84.70;;;;;;5010156;28;20248;-71
2022/10/25 03:08:21;;;;;;;7.13;4.22;;;12.40;84.80;;;;;;5012238;28;20184;-71
2022/10/25 03:10:47;;;;;;;6.63;3.97;;;12.30;84.20;;;;;;5008579;28;20213;-71
2022/10/25 03:13:13;;;;;;;6.75;4.15;;;12.30;82.90;;;;;;5010985;28;20199;-70
2022/10/25 03:15:39;;;;;;;10.70;4.30;;;12.20;83.40;;;;;;5010947;28;20189;-70
2022/10/25 03:18:04;;;;;;;10.82;5.35;;;12.20;83.20;;;;;;5010408;28;20206;-70
2022/10/25 03:20:30;;;;;;;5.13;3.78;;;12.20;83.40;;;;;;5014205;28;20184;-71
2022/10/25 03:22:56;;;;;;;6.32;4.38;;;12.10;83.50;;;;;;5011671;28;20303;-71
2022/10/25 03:25:22;;;;;;;6.38;3.92;;;12.10;83.30;;;;;;5008235;28;20188;-70
2022/10/25 03:27:47;;;;;;;16.77;5.00;;;12.10;83.10;;;;;;5012623;28;20184;-72
2022/10/25 03:30:14;;;;;;;9.32;3.70;;;12.10;83.30;;;;;;5013044;28;20839;-71
2022/10/25 03:32:40;;;;;;;8.90;3.60;;;12.00;83.70;;;;;;5007523;28;20252;-70
2022/10/25 03:35:06;;;;;;;6.97;3.40;;;12.00;83.90;;;;;;5013818;28;20263;-71
2022/10/25 03:37:32;;;;;;;8.05;3.17;;;12.00;83.70;;;;;;5008481;28;20760;-71
2022/10/25 03:39:58;;;;;;;8.20;3.67;;;12.00;83.50;;;;;;5010952;28;20276;-71
2022/10/25 03:42:24;;;;;;;9.23;3.90;;;12.00;84.80;;;;;;5009187;28;20241;-71
2022/10/25 03:44:50;;;;;;;7.60;4.95;;;12.00;85.30;;;;;;5013195;28;20283;-71
2022/10/25 03:47:16;;;;;;;6.70;4.28;;;11.90;84.30;;;;;;5011392;28;20390;-70
2022/10/25 03:49:41;;;;;;;9.60;4.80;;;11.90;86.40;;;;;;5012403;28;20295;-72
2022/10/25 03:52:07;;;;;;;10.95;4.85;;;11.90;85.80;;;;;;5007147;28;20177;-72
2022/10/25 03:54:33;;;;;;;10.00;4.30;;;11.80;85.90;;;;;;5009672;28;20181;-72
2022/10/25 03:57:00;;;;;;;8.10;5.07;;;11.80;87.20;;;;;;5018103;28;20180;-71
2022/10/25 03:59:26;;;;;;;7.68;5.55;;;11.80;86.90;;;;;;5007291;28;20215;-71
2022/10/25 04:01:51;;;;;;;11.68;5.00;;;11.80;87.20;;;;;;5013042;28;20271;-72
2022/10/25 04:04:17;;;;;;;13.18;5.78;;;11.70;88.70;;;;;;5013767;28;20276;-71
2022/10/25 04:06:43;;;;;;;6.30;3.80;;;11.60;87.90;;;;;;5013299;28;20192;-71
2022/10/25 04:09:09;;;;;;;7.88;4.00;;;11.60;87.90;;;;;;5013301;28;20181;-70
2022/10/25 04:11:34;;;;;;;8.05;4.32;;;11.60;88.20;;;;;;5004744;28;20580;-70
2022/10/25 04:14:00;;;;;;;9.90;4.22;;;11.50;88.30;;;;;;5010935;28;20260;-71
2022/10/25 04:16:26;;;;;;;5.72;3.53;;;11.50;88.90;;;;;;5010365;28;20314;-72
2022/10/25 04:18:56;;;;;;;7.72;3.60;;;11.50;88.30;;;;;;5009953;28;20193;-72
2022/10/25 04:21:22;;;;;;;3.53;3.25;;;11.50;88.00;;;;;;5012254;28;20221;-71
2022/10/25 04:23:51;;;;;;;5.07;3.20;;;11.40;87.20;;;;;;5011440;28;20207;-72
2022/10/25 04:26:18;;;;;;;3.53;3.33;;;11.40;88.00;;;;;;5008041;28;20189;-73
2022/10/25 04:28:49;;;;;;;3.47;3.10;;;11.40;87.80;;;;;;5010000;28;20176;-71
2022/10/25 04:31:15;;;;;;;4.55;3.63;;;11.50;87.50;;;;;;5005891;28;20247;-70
2022/10/25 04:33:41;;;;;;;4.03;3.17;;;11.40;87.20;;;;;;5010144;28;20208;-70
2022/10/25 04:36:07;;;;;;;10.25;3.88;;;11.40;86.60;;;;;;5013548;28;20176;-70
2022/10/25 04:38:32;;;;;;;6.45;4.10;;;11.40;86.20;;;;;;5010990;28;20192;-70
2022/10/25 04:40:59;;;;;;;6.00;3.72;;;11.40;85.80;;;;;;5013487;28;20196;-70
2022/10/25 04:43:26;;;;;;;7.68;4.30;;;11.40;86.00;;;;;;5009882;28;20189;-70
2022/10/25 04:45:53;;;;;;;13.40;4.32;;;11.40;86.10;;;;;;5009404;28;20205;-70
2022/10/25 04:48:19;;;;;;;7.10;5.22;;;11.40;87.10;;;;;;5014128;28;20265;-70
2022/10/25 04:50:45;;;;;;;11.63;5.07;;;11.40;86.40;;;;;;5013039;28;20301;-70
2022/10/25 04:53:10;;;;;;;9.27;5.30;;;11.40;86.20;;;;;;5016038;28;20685;-71
2022/10/25 04:55:36;;;;;;;9.05;5.65;;;11.30;86.10;;;;;;5013725;28;20173;-71
2022/10/25 04:58:03;;;;;;;9.48;4.88;;;11.30;85.90;;;;;;5016520;28;20195;-70
2022/10/25 05:00:28;;;;;;;14.00;5.68;;;11.20;86.20;;;;;;5013956;28;20666;-71
2022/10/25 05:02:54;;;;;;;10.63;6.35;;;11.20;85.80;;;;;;5013398;28;20187;-73
2022/10/25 05:05:22;;;;;;;13.48;6.13;;;11.20;85.90;;;;;;5008858;28;20200;-71
2022/10/25 05:07:48;;;;;;;11.73;5.47;;;11.20;85.10;;;;;;5013975;28;20176;-71
2022/10/25 05:10:14;;;;;;;12.02;6.05;;;11.20;85.40;;;;;;5014028;28;20197;-71
2022/10/25 05:12:40;;;;;;;14.30;6.65;;;11.20;85.60;;;;;;5012019;28;20185;-71
2022/10/25 05:15:07;;;;;;;10.30;6.15;;;11.20;85.70;;;;;;5009484;28;20254;-71
2022/10/25 05:17:32;;;;;;;8.55;6.80;;;11.20;86.00;;;;;;5009024;28;20185;-72
2022/10/25 05:19:59;;;;;;;13.07;7.20;;;11.30;86.30;;;;;;5009408;28;20584;-71
2022/10/25 05:22:25;;;;;;;13.88;6.10;;;11.30;86.40;;;;;;5019046;28;20184;-70
2022/10/25 05:24:51;;;;;;;6.55;5.72;;;11.30;86.90;;;;;;5011230;28;20184;-71
2022/10/25 05:27:17;;;;;;;10.23;6.32;;;11.40;87.10;;;;;;5008503;28;20267;-70
2022/10/25 05:29:43;;;;;;;7.88;6.25;;;11.40;88.30;;;;;;5012345;28;20247;-70
2022/10/25 05:32:08;;;;;;;14.02;7.18;;;11.40;87.90;;;;;;5013533;28;20208;-70
2022/10/25 05:34:34;;;;;;;11.38;5.97;;;11.50;88.50;;;;;;5014776;28;20208;-70
2022/10/25 05:37:00;;;;;;;13.30;5.95;;;11.50;88.10;;;;;;5008930;28;20578;-71
2022/10/25 05:39:25;;;;;;;8.95;6.20;;;11.50;87.50;;;;;;5012121;28;20263;-70
2022/10/25 05:41:51;;;;;;;14.10;6.53;;;11.50;88.20;;;;;;5005460;28;20185;-70
2022/10/25 05:44:17;;;;;;;9.60;6.03;;;11.50;89.00;;;;;;5015699;28;20280;-70
2022/10/25 05:46:43;;;;;;;14.25;6.03;;;11.60;88.20;;;;;;5013010;28;20293;-71
2022/10/25 05:49:10;;;;;;;6.10;5.53;;;11.60;87.50;;;;;;5016069;28;20180;-70
2022/10/25 05:51:36;;;;;;;12.00;5.43;;;11.70;88.20;;;;;;5013102;28;20622;-71
2022/10/25 05:54:13;;;;;;;11.68;5.68;;;11.70;88.30;;;;;;5014849;28;20307;-71
2022/10/25 05:56:39;;;;;;;6.88;5.63;;;11.80;87.40;;;;;;5018421;28;20199;-71
2022/10/25 05:59:10;;;;;;;6.47;5.32;;;11.80;87.70;;;;;;5010651;28;20636;-71
2022/10/25 06:01:41;;;;;;;8.02;5.20;;;11.90;87.80;;;;;;5010398;28;20185;-71
2022/10/25 06:04:07;;;;;;;12.60;6.18;;;12.00;87.70;;;;;;5012454;28;20696;-69
2022/10/25 06:06:34;;;;;;;12.68;6.88;;;12.00;87.90;;;;;;5015251;28;20304;-72
2022/10/25 06:09:00;;;;;;;12.90;7.05;;;12.10;87.90;;;;;;5008732;28;20188;-70
2022/10/25 06:11:28;;;;;;;13.40;7.78;;;12.20;88.10;;;;;;5012058;28;20213;-71
2022/10/25 06:13:54;;;;;;;15.50;7.07;;;12.30;87.70;;;;;;5013717;28;20700;-70
2022/10/25 06:16:20;;;;;;;11.77;6.80;;;12.40;87.60;;;;;;5009140;28;20184;-70
2022/10/25 06:18:46;;;;;;;18.45;7.50;;;12.50;87.50;;;;;;5015058;28;20557;-70
2022/10/25 06:21:18;;;;;;;10.73;7.32;;;12.50;87.40;;;;;;5012413;28;20189;-70
2022/10/25 06:23:44;;;;;;;9.93;7.65;;;12.60;87.10;;;;;;5013003;28;20196;-70
2022/10/25 06:26:13;;;;;;;18.90;9.73;;;12.70;88.10;;;;;;5015598;28;20283;-70
2022/10/25 06:28:40;;;;;;;18.40;9.40;;;12.90;87.70;;;;;;5015197;28;20271;-70
2022/10/25 06:31:10;;;;;;;19.77;8.98;;;12.90;87.70;;;;;;5017152;28;20217;-72
2022/10/25 06:33:36;;;;;;;21.35;10.52;;;13.00;87.60;;;;;;5016438;28;20267;-70
2022/10/25 06:36:03;;;;;;;16.92;9.50;;;13.10;87.20;;;;;;5011852;28;20685;-70
2022/10/25 06:38:29;;;;;;;14.07;8.93;;;13.20;87.00;;;;;;5008427;28;20477;-70
2022/10/25 06:41:03;;;;;;;13.45;8.73;;;13.30;87.20;;;;;;5017509;28;20697;-70
2022/10/25 06:43:30;;;;;;;21.45;9.57;;;13.40;87.00;;;;;;5012829;28;20191;-70
2022/10/25 06:45:56;;;;;;;20.83;9.93;;;13.40;86.80;;;;;;5014006;28;20200;-70
2022/10/25 06:48:22;;;;;;;19.75;10.95;;;13.60;87.00;;;;;;5011493;28;20740;-70
2022/10/25 06:50:48;;;;;;;17.27;10.30;;;13.80;87.20;;;;;;5012380;28;20220;-70
2022/10/25 06:53:14;;;;;;;17.35;9.73;;;14.00;87.80;;;;;;5010665;28;20674;-71
2022/10/25 06:55:41;;;;;;;17.30;9.75;;;14.50;87.80;;;;;;5010256;28;20556;-71
2022/10/25 06:58:07;;;;;;;27.85;9.93;;;14.90;86.80;;;;;;5009008;28;20173;-71
2022/10/25 07:00:32;;;;;;;19.80;8.93;;;15.40;86.70;;;;;;5011056;28;20654;-71
2022/10/25 07:02:59;;;;;;;14.52;9.07;;;16.00;86.00;;;;;;5009486;28;20195;-70
2022/10/25 07:05:25;;;;;;;17.58;10.07;;;16.60;84.90;;;;;;5009821;28;20188;-72
2022/10/25 07:07:51;;;;;;;16.58;9.95;;;17.20;83.60;;;;;;5011019;28;20188;-70
2022/10/25 07:10:17;;;;;;;15.98;9.80;;;17.60;80.50;;;;;;5014030;28;20220;-71
2022/10/25 07:12:43;;;;;;;17.92;10.15;;;18.10;78.70;;;;;;5009372;28;20667;-70
2022/10/25 07:15:10;;;;;;;13.75;9.32;;;18.50;78.30;;;;;;5013947;28;20184;-70
2022/10/25 07:17:35;;;;;;;19.15;9.00;;;19.00;77.80;;;;;;5013712;28;20255;-70
2022/10/25 07:20:01;;;;;;;16.73;10.13;;;19.50;76.70;;;;;;5013908;28;20942;-70
2022/10/25 07:22:27;;;;;;;19.83;10.05;;;20.00;74.40;;;;;;5015864;28;20234;-71
2022/10/25 07:24:53;;;;;;;18.77;10.20;;;20.60;74.30;;;;;;5014233;28;20208;-71
2022/10/25 07:27:19;;;;;;;20.00;10.43;;;21.20;72.60;;;;;;5008261;28;20185;-70
2022/10/25 07:29:45;;;;;;;25.75;11.10;;;21.70;71.90;;;;;;5009393;28;20933;-70
2022/10/25 07:32:10;;;;;;;19.33;10.93;;;22.20;70.60;;;;;;5012476;28;20195;-71
2022/10/25 07:34:36;;;;;;;20.00;11.02;;;22.80;70.70;;;;;;5011664;28;20192;-71
2022/10/25 07:37:02;;;;;;;16.95;10.82;;;23.40;69.60;;;;;;5010171;28;20272;-71
2022/10/25 07:39:28;;;;;;;17.10;10.50;;;24.00;67.90;;;;;;5009670;28;20196;-71
2022/10/25 07:41:54;;;;;;;23.08;12.13;;;24.60;66.90;;;;;;5011170;28;20189;-71
2022/10/25 07:44:20;;;;;;;17.63;10.90;;;25.10;64.80;;;;;;5009864;28;20185;-71
2022/10/25 07:46:46;;;;;;;26.30;11.23;;;25.60;63.80;;;;;;5012587;28;20588;-71
2022/10/25 07:49:13;;;;;;;20.10;10.68;;;26.20;63.40;;;;;;5012736;28;20199;-71
2022/10/25 07:51:38;;;;;;;20.13;10.68;;;26.60;63.40;;;;;;5014019;28;20218;-71
2022/10/25 07:54:04;;;;;;;23.23;10.75;;;27.20;61.80;;;;;;5009425;28;20188;-71
2022/10/25 07:56:30;;;;;;;16.50;9.20;;;27.70;60.60;;;;;;5013832;28;20204;-70
2022/10/25 07:58:55;;;;;;;15.57;9.60;;;28.20;60.70;;;;;;5010861;28;20187;-70
2022/10/25 08:01:23;;;;;;;23.00;10.45;;;28.70;60.20;;;;;;5009591;28;20472;-70
2022/10/25 08:03:50;;;;;;;24.02;10.52;;;29.20;59.40;;;;;;5008170;28;20184;-70
2022/10/25 08:06:16;;;;;;;18.83;10.25;;;29.60;57.30;;;;;;5011196;28;20210;-70
2022/10/25 08:08:42;;;;;;;19.02;10.38;;;30.00;57.60;;;;;;5004752;28;20185;-70
2022/10/25 08:11:08;;;;;;;16.55;9.90;;;30.40;56.50;;;;;;5001916;28;20217;-71
2022/10/25 08:13:35;;;;;;;22.23;9.95;;;30.90;56.40;;;;;;5007266;28;20192;-70
2022/10/25 08:16:01;;;;;;;15.65;9.90;;;31.30;55.40;;;;;;5003719;28;20185;-70
2022/10/25 08:18:27;;;;;;;14.15;9.38;;;31.70;54.70;;;;;;5004116;28;20191;-70
2022/10/25 08:20:54;;;;;;;13.70;9.10;;;32.20;53.90;;;;;;5002558;28;20187;-70
2022/10/25 08:23:19;;;;;;;18.90;8.80;;;32.60;53.30;;;;;;5006776;28;20870;-71
2022/10/25 08:25:45;;;;;;;11.40;8.30;;;33.00;52.80;;;;;;5007205;28;20177;-71
2022/10/25 08:28:12;;;;;;;14.80;9.13;;;33.30;52.10;;;;;;5012829;28;20241;-70
2022/10/25 08:30:40;;;;;;;16.17;8.50;;;33.70;51.40;;;;;;5007612;28;20236;-71
2022/10/25 08:33:06;;;;;;;15.38;8.45;;;34.00;50.80;;;;;;5008219;28;20592;-71
2022/10/25 08:35:32;;;;;;;13.48;7.15;;;34.30;51.00;;;;;;5006822;28;20185;-70
2022/10/25 08:38:02;;;;;;;7.70;6.55;;;34.50;50.20;;;;;;5010288;28;20196;-70
2022/10/25 08:40:54;;;;;;;13.45;6.82;;;34.80;50.90;;;;;;5009868;28;20188;-70
2022/10/25 08:43:41;;;;;;;16.40;6.57;;;35.10;48.60;;;;;;5005303;28;20177;-70
2022/10/25 08:46:38;;;;;;;10.00;5.55;;;35.40;48.40;;;;;;5010522;28;20196;-70
2022/10/25 08:49:24;;;;;;;14.23;6.28;;;35.80;47.20;;;;;;5004755;28;20999;-71
2022/10/25 08:51:51;;;;;;;13.02;5.80;;;35.90;48.70;;;;;;5005295;28;20207;-71
2022/10/25 08:54:23;;;;;;;12.77;5.60;;;35.70;47.80;;;;;;5007175;28;20201;-71
2022/10/25 08:56:53;;;;;;;16.40;5.00;;;35.50;48.70;;;;;;5005441;28;20196;-71
2022/10/25 08:59:31;;;;;;;6.72;5.05;;;35.50;47.20;;;;;;5009936;28;20666;-72
2022/10/25 09:01:58;;;;;;;9.32;5.07;;;35.60;47.90;;;;;;5006231;28;20180;-71
2022/10/25 09:04:25;;;;;;;14.32;6.15;;;35.70;48.50;;;;;;5005585;28;20243;-72
2022/10/25 09:07:18;;;;;;;13.00;6.25;;;35.80;47.60;;;;;;5010344;28;20196;-71
2022/10/25 09:09:44;;;;;;;9.60;6.45;;;36.00;46.40;;;;;;5002491;28;20193;-71
2022/10/25 09:12:41;;;;;;;16.95;5.95;;;36.00;47.60;;;;;;5005598;28;20182;-71
2022/10/25 09:15:34;;;;;;;11.50;6.18;;;36.10;46.80;;;;;;5008398;28;20596;-71
2022/10/25 09:18:04;;;;;;;10.43;6.95;;;36.00;46.30;;;;;;5002125;28;21380;-72
2022/10/25 09:20:35;;;;;;;10.15;6.20;;;36.10;48.20;;;;;;5003773;28;20200;-72
2022/10/25 09:23:22;;;;;;;14.52;7.03;;;36.40;47.70;;;;;;5009164;28;20188;-72
2022/10/25 09:25:51;;;;;;;13.02;6.18;;;36.70;47.70;;;;;;5004467;28;20386;-72
2022/10/25 09:28:47;;;;;;;12.98;7.43;;;37.00;45.90;;;;;;5006786;28;20188;-72
2022/10/25 09:31:18;;;;;;;15.82;7.22;;;37.30;46.00;;;;;;5009938;28;20219;-72
2022/10/25 09:33:47;;;;;;;11.60;7.07;;;37.50;46.60;;;;;;5010265;28;20625;-72
2022/10/25 09:36:14;;;;;;;15.25;7.82;;;37.70;46.70;;;;;;5011685;28;20188;-72
2022/10/25 09:38:56;;;;;;;19.90;8.07;;;38.00;46.40;;;;;;5019578;28;20183;-72
2022/10/25 09:41:36;;;;;;;15.77;7.72;;;38.10;46.40;;;;;;5012269;28;20275;-73
2022/10/25 09:44:13;;;;;;;12.93;8.95;;;38.30;46.10;;;;;;5012257;28;20191;-72
2022/10/25 09:46:44;;;;;;;16.33;8.13;;;38.50;45.90;;;;;;5016346;28;20270;-72
2022/10/25 09:49:09;;;;;;;11.02;7.55;;;38.60;45.70;;;;;;5012854;28;20670;-72
2022/10/25 09:51:58;;;;;;;13.25;7.47;;;38.70;45.10;;;;;;5011964;28;20212;-72
2022/10/25 09:54:38;;;;;;;20.30;7.55;;;38.80;40.80;;;;;;5006815;28;20243;-72
2022/10/25 09:57:04;;;;;;;14.63;7.40;;;38.50;45.40;;;;;;5014869;28;20180;-72
2022/10/25 09:59:30;;;;;;;15.32;7.72;;;38.40;45.30;;;;;;5013028;28;20184;-73
2022/10/25 10:01:56;;;;;;;15.85;7.32;;;38.30;44.90;;;;;;5014432;28;20202;-72
2022/10/25 10:04:37;;;;;;;13.68;7.00;;;38.30;45.10;;;;;;5015003;28;20187;-72
2022/10/25 10:07:13;;;;;;;11.55;6.85;;;38.20;45.20;;;;;;5013441;28;20894;-72
2022/10/25 10:09:40;;;;;;;9.25;7.03;;;38.10;44.00;;;;;;5012599;28;20215;-72
2022/10/25 10:12:34;;;;;;;12.63;6.93;;;38.00;44.90;;;;;;5011133;28;20180;-72
2022/10/25 10:15:05;;;;;;;15.85;6.43;;;38.00;43.10;;;;;;4977304;28;20214;-72
2022/10/25 10:17:31;;;;;;;11.85;6.22;;;37.90;42.50;;;;;;4980200;28;20200;-71
2022/10/25 10:20:12;;;;;;;12.52;7.25;;;37.70;44.90;;;;;;4981830;28;20667;-72
2022/10/25 10:22:44;;;;;;;20.60;7.03;;;37.50;43.20;;;;;;4980335;28;20215;-72
2022/10/25 10:25:26;;;;;;;14.95;7.15;;;37.40;45.10;;;;;;4980787;28;20711;-72
2022/10/25 10:27:54;;;;;;;12.88;5.45;;;37.20;44.90;;;;;;4979665;28;20247;-72
2022/10/25 10:30:29;;;;;;;13.85;6.30;;;37.00;45.30;;;;;;4980825;28;20213;-72
2022/10/25 10:33:00;;;;;;;10.07;6.03;;;37.00;44.00;;;;;;4981613;28;20196;-72
2022/10/25 10:35:34;;;;;;;10.10;6.35;;;36.80;45.50;;;;;;4980565;28;20315;-72
2022/10/25 10:38:18;;;;;;;15.23;7.25;;;36.80;44.40;;;;;;4980499;28;20273;-72
2022/10/25 10:40:44;;;;;;;16.17;6.55;;;36.40;43.50;;;;;;4982336;28;20264;-72
2022/10/25 10:43:28;;;;;;;10.75;6.40;;;36.10;45.30;;;;;;4980205;28;20228;-72
2022/10/25 10:46:04;;;;;;;14.82;6.60;;;35.90;44.40;;;;;;4982794;28;21032;-72
2022/10/25 10:48:36;;;;;;;13.98;7.28;;;35.80;43.70;;;;;;4980402;28;20181;-72
2022/10/25 10:51:02;;;;;;;13.90;6.60;;;35.80;45.70;;;;;;4981616;28;20229;-71
2022/10/25 10:53:31;;;;;;;15.35;5.97;;;35.90;44.70;;;;;;5011215;28;20615;-73
2022/10/25 10:55:59;;;;;;;18.27;6.63;;;36.00;45.00;;;;;;5004802;28;20180;-71
2022/10/25 10:58:27;;;;;;;20.90;7.20;;;36.00;43.80;;;;;;5014482;28;20259;-71
2022/10/25 11:00:57;;;;;;;7.75;5.93;;;36.10;43.80;;;;;;5009032;28;20184;-71
2022/10/25 11:03:47;;;;;;;12.48;6.20;;;36.10;46.00;;;;;;5014723;28;20184;-71
2022/10/25 11:06:29;;;;;;;12.75;5.93;;;36.30;43.70;;;;;;5002060;28;20251;-71
2022/10/25 11:09:19;;;;;;;14.20;6.32;;;36.50;43.30;;;;;;5002091;28;21713;-71
2022/10/25 11:12:04;;;;;;;13.02;6.22;;;36.60;44.30;;;;;;5000991;28;20366;-71
2022/10/25 11:14:30;;;;;;;9.07;5.38;;;36.70;43.50;;;;;;5000394;28;20262;-71
2022/10/25 11:17:10;;;;;;;10.98;4.85;;;36.90;43.80;;;;;;5001306;28;20228;-71
2022/10/25 11:19:48;;;;;;;8.30;4.82;;;37.00;43.40;;;;;;5000449;28;20188;-71
2022/10/25 11:22:34;;;;;;;12.05;5.30;;;37.10;44.60;;;;;;5001085;28;20193;-72
2022/10/25 11:25:05;;;;;;;9.75;4.93;;;37.40;43.40;;;;;;4999996;28;20259;-71
2022/10/25 11:27:52;;;;;;;12.20;4.82;;;37.50;43.40;;;;;;5001324;28;20189;-71
2022/10/25 11:30:23;;;;;;;13.13;5.15;;;37.60;43.20;;;;;;5000972;28;20224;-71
2022/10/25 11:33:14;;;;;;;13.40;4.55;;;37.70;40.50;;;;;;5001241;28;20356;-72
2022/10/25 11:36:14;;;;;;;11.23;4.63;;;37.90;41.00;;;;;;5000920;28;20241;-72
2022/10/25 11:39:04;;;;;;;10.27;4.30;;;37.90;40.70;;;;;;5001173;28;20192;-71
2022/10/25 11:41:48;;;;;;;7.68;3.67;;;37.90;40.30;;;;;;4999956;28;20629;-71
2022/10/25 11:44:25;;;;;;;9.20;4.50;;;37.90;41.30;;;;;;5008580;28;20247;-71
2022/10/25 11:47:08;;;;;;;14.98;3.95;;;37.70;42.10;;;;;;5012284;28;20315;-71
2022/10/25 11:49:42;;;;;;;8.13;3.95;;;37.60;41.90;;;;;;5009562;28;20191;-71
2022/10/25 11:52:27;;;;;;;11.60;3.83;;;37.60;40.70;;;;;;5010464;28;20210;-72
2022/10/25 11:55:27;;;;;;;6.95;4.07;;;37.40;40.80;;;;;;5008520;28;20208;-72
2022/10/25 11:58:27;;;;;;;9.88;4.20;;;37.40;41.50;;;;;;5006694;28;20255;-72
2022/10/25 12:01:08;;;;;;;9.93;3.70;;;37.30;41.10;;;;;;5008331;28;20686;-72
2022/10/25 12:04:01;;;;;;;7.70;3.63;;;37.10;40.10;;;;;;5010131;28;20208;-72
2022/10/25 12:06:32;;;;;;;11.85;4.38;;;36.90;40.40;;;;;;5012084;28;20759;-72
2022/10/25 12:09:30;;;;;;;8.10;3.47;;;36.60;41.10;;;;;;5013614;28;20648;-72
2022/10/25 12:12:08;;;;;;;9.27;3.50;;;36.60;42.60;;;;;;5013021;28;20251;-72
2022/10/25 12:14:39;;;;;;;12.70;3.75;;;36.60;41.70;;;;;;5011876;28;20175;-72
2022/10/25 12:17:11;;;;;;;12.55;3.15;;;36.70;41.70;;;;;;5009254;28;20210;-72
2022/10/25 12:19:44;;;;;;;21.45;3.83;;;36.60;40.60;;;;;;5011598;28;20196;-71
2022/10/25 12:22:23;;;;;;;8.38;3.63;;;36.40;41.80;;;;;;5007179;28;20184;-73
2022/10/25 12:24:58;;;;;;;11.18;3.75;;;36.40;41.80;;;;;;5015584;28;20191;-70
2022/10/25 12:27:27;;;;;;;8.43;3.70;;;36.40;41.30;;;;;;5011608;28;20237;-72
2022/10/25 12:30:03;;;;;;;6.30;2.78;;;36.30;43.30;;;;;;5007478;28;20246;-72
2022/10/25 12:32:37;;;;;;;12.93;3.72;;;36.40;42.20;;;;;;5007440;28;20249;-71
2022/10/25 12:35:12;;;;;;;11.88;4.18;;;36.30;42.60;;;;;;5007207;28;20184;-71
2022/10/25 12:37:44;;;;;;;9.85;3.72;;;36.20;42.90;;;;;;5012283;28;20184;-71
2022/10/25 12:40:15;;;;;;;10.60;3.72;;;36.10;41.40;;;;;;5007768;28;20267;-72
2022/10/25 12:42:46;;;;;;;8.25;3.30;;;36.00;41.20;;;;;;5008469;28;20204;-71
2022/10/25 12:45:36;;;;;;;15.18;3.63;;;35.90;41.70;;;;;;5005368;28;20666;-72
2022/10/25 12:48:08;;;;;;;10.35;3.55;;;35.90;43.30;;;;;;5008746;28;20184;-72
2022/10/25 12:51:04;;;;;;;11.27;3.22;;;36.00;41.50;;;;;;5007946;28;20227;-73
2022/10/25 12:53:49;;;;;;;13.60;3.22;;;36.00;40.40;;;;;;5008076;28;20222;-72
2022/10/25 12:56:44;;;;;;;8.07;3.13;;;35.80;41.10;;;;;;5008595;28;20270;-72
2022/10/25 12:59:32;;;;;;;11.95;3.13;;;35.60;41.50;;;;;;5000283;28;20227;-72
2022/10/25 13:02:13;;;;;;;5.95;2.88;;;35.50;41.30;;;;;;4998328;28;20188;-72